Hlavní strana
METAR-TAF:

METAR-TAF

Letiště :

Padova, Itálie

zeměpisná šířka: 45-23-45N, zeměpisná délka: 11-50-53E, výška: 13 m

Aktuální stav počasí

Zpráva byla vytvořena před 1 hodinou a 53 minutami, v 06:02 UTC
Východoseverovýchodní vítr 5 kt
Teplota 23°C
Vlhkost vzduchu 61%
Tlak 1019 hPa
Viditelnost 10 km a více
Žádná oblačnost pod 1500 m, nevyskytují se cumulonimby.

METAR: LIPU 260602Z 06005KT CAVOK 23/15 Q1019

Čas: 09:55 (07:55 UTC)


TAF: chybějící

Stav a předpovědi počasí z více než 4 000 letišť (zprávy METAR a TAF).

Červené a žluté tečky na mapě představují dostupné meteorologické stanice.

Když kurzor umístíte na tečku, zobrazí se název stanice.

Pak kliknutím zobrazíte stav a předpověď počasí.

Chcete-li změnit mapu, kliknutím na zelené tlačítko se znaménkem +mapu přiblížíte, kliknutím na zelené tlačítko se znaménkem – mapu oddálíte a kliknutím na zelené šipky přejdete na sousední mapy.


METAR-TAF: